sensor_id;sensor_type;location;lat;lon;timestamp;pressure;altitude;pressure_sealevel;temperature;humidity
55801;BME280;41730;51.960;20.158;2023-05-29T00:02:05;100480.55;;;12.04;58.43
55801;BME280;41730;51.960;20.158;2023-05-29T00:04:37;100479.93;;;11.97;58.54
55801;BME280;41730;51.960;20.158;2023-05-29T00:07:09;100474.22;;;11.81;59.00
55801;BME280;41730;51.960;20.158;2023-05-29T00:09:40;100475.40;;;11.82;59.11
55801;BME280;41730;51.960;20.158;2023-05-29T00:12:12;100476.07;;;11.82;59.08
55801;BME280;41730;51.960;20.158;2023-05-29T00:14:45;100478.02;;;11.86;58.82
55801;BME280;41730;51.960;20.158;2023-05-29T00:17:16;100477.43;;;11.77;59.11
55801;BME280;41730;51.960;20.158;2023-05-29T00:19:48;100477.46;;;11.65;59.41
55801;BME280;41730;51.960;20.158;2023-05-29T00:22:20;100473.29;;;11.65;59.47
55801;BME280;41730;51.960;20.158;2023-05-29T00:24:51;100471.61;;;11.68;59.31
55801;BME280;41730;51.960;20.158;2023-05-29T00:27:23;100471.02;;;11.61;59.38
55801;BME280;41730;51.960;20.158;2023-05-29T00:29:57;100469.87;;;11.55;59.78
55801;BME280;41730;51.960;20.158;2023-05-29T00:32:43;100470.27;;;11.65;59.62
55801;BME280;41730;51.960;20.158;2023-05-29T00:35:16;100471.09;;;11.72;59.22
55801;BME280;41730;51.960;20.158;2023-05-29T00:37:47;100470.50;;;11.78;59.12
55801;BME280;41730;51.960;20.158;2023-05-29T00:40:19;100474.06;;;11.70;59.21
55801;BME280;41730;51.960;20.158;2023-05-29T00:42:50;100472.00;;;11.85;58.95
55801;BME280;41730;51.960;20.158;2023-05-29T00:45:22;100467.73;;;11.96;58.51
55801;BME280;41730;51.960;20.158;2023-05-29T00:47:53;100468.79;;;11.81;58.93
55801;BME280;41730;51.960;20.158;2023-05-29T00:50:25;100464.81;;;11.65;59.22
55801;BME280;41730;51.960;20.158;2023-05-29T00:52:57;100472.62;;;11.56;59.49
55801;BME280;41730;51.960;20.158;2023-05-29T00:55:30;100474.62;;;11.43;59.69
55801;BME280;41730;51.960;20.158;2023-05-29T00:58:02;100473.91;;;11.38;59.87
55801;BME280;41730;51.960;20.158;2023-05-29T01:00:34;100469.15;;;11.27;60.12
55801;BME280;41730;51.960;20.158;2023-05-29T01:03:09;100473.53;;;11.21;60.38
55801;BME280;41730;51.960;20.158;2023-05-29T01:05:45;100467.52;;;11.24;60.21
55801;BME280;41730;51.960;20.158;2023-05-29T01:08:17;100464.88;;;11.22;60.20
55801;BME280;41730;51.960;20.158;2023-05-29T01:10:53;100462.06;;;11.15;60.37
55801;BME280;41730;51.960;20.158;2023-05-29T01:13:29;100463.59;;;11.12;60.26
55801;BME280;41730;51.960;20.158;2023-05-29T01:16:08;100462.59;;;11.17;60.25
55801;BME280;41730;51.960;20.158;2023-05-29T01:18:49;100466.13;;;11.17;60.17
55801;BME280;41730;51.960;20.158;2023-05-29T01:21:27;100467.06;;;10.99;60.47
55801;BME280;41730;51.960;20.158;2023-05-29T01:24:17;100466.89;;;11.06;60.36
55801;BME280;41730;51.960;20.158;2023-05-29T01:26:57;100469.05;;;11.09;60.21
55801;BME280;41730;51.960;20.158;2023-05-29T01:29:32;100465.69;;;11.05;60.27
55801;BME280;41730;51.960;20.158;2023-05-29T01:32:06;100463.46;;;10.98;60.54
55801;BME280;41730;51.960;20.158;2023-05-29T01:34:38;100461.23;;;10.91;60.61
55801;BME280;41730;51.960;20.158;2023-05-29T01:37:09;100458.63;;;10.86;60.83
55801;BME280;41730;51.960;20.158;2023-05-29T01:39:41;100459.52;;;10.88;60.81
55801;BME280;41730;51.960;20.158;2023-05-29T01:42:13;100456.70;;;10.81;60.98
55801;BME280;41730;51.960;20.158;2023-05-29T01:44:46;100458.91;;;10.74;61.02
55801;BME280;41730;51.960;20.158;2023-05-29T01:47:18;100458.13;;;10.75;61.15
55801;BME280;41730;51.960;20.158;2023-05-29T01:49:51;100460.86;;;10.71;61.22
55801;BME280;41730;51.960;20.158;2023-05-29T01:52:23;100462.20;;;10.68;61.31
55801;BME280;41730;51.960;20.158;2023-05-29T01:54:54;100460.85;;;10.52;61.74
55801;BME280;41730;51.960;20.158;2023-05-29T01:57:27;100459.39;;;10.48;61.92
55801;BME280;41730;51.960;20.158;2023-05-29T02:00:00;100456.85;;;10.44;61.89
55801;BME280;41730;51.960;20.158;2023-05-29T02:02:31;100455.75;;;10.47;61.76
55801;BME280;41730;51.960;20.158;2023-05-29T02:05:03;100455.26;;;10.44;61.81
55801;BME280;41730;51.960;20.158;2023-05-29T02:07:35;100452.62;;;10.47;62.04
55801;BME280;41730;51.960;20.158;2023-05-29T02:10:08;100448.17;;;10.57;61.82
55801;BME280;41730;51.960;20.158;2023-05-29T02:12:40;100449.52;;;10.46;61.75
55801;BME280;41730;51.960;20.158;2023-05-29T02:15:13;100443.38;;;10.48;61.87
55801;BME280;41730;51.960;20.158;2023-05-29T02:17:45;100441.27;;;10.58;61.53
55801;BME280;41730;51.960;20.158;2023-05-29T02:20:16;100445.09;;;10.49;61.64
55801;BME280;41730;51.960;20.158;2023-05-29T02:22:48;100445.67;;;10.39;61.73
55801;BME280;41730;51.960;20.158;2023-05-29T02:25:20;100451.05;;;10.29;62.40
55801;BME280;41730;51.960;20.158;2023-05-29T02:27:51;100447.44;;;10.37;62.15
55801;BME280;41730;51.960;20.158;2023-05-29T02:30:23;100446.27;;;10.34;62.05
55801;BME280;41730;51.960;20.158;2023-05-29T02:32:54;100443.53;;;10.28;62.03
55801;BME280;41730;51.960;20.158;2023-05-29T02:35:26;100438.20;;;10.20;62.35
55801;BME280;41730;51.960;20.158;2023-05-29T02:37:58;100438.91;;;10.20;62.53
55801;BME280;41730;51.960;20.158;2023-05-29T02:40:29;100441.13;;;10.25;62.39
55801;BME280;41730;51.960;20.158;2023-05-29T02:43:01;100441.14;;;10.32;62.18
55801;BME280;41730;51.960;20.158;2023-05-29T02:45:32;100442.84;;;10.46;61.86
55801;BME280;41730;51.960;20.158;2023-05-29T02:48:04;100439.16;;;10.64;61.39
55801;BME280;41730;51.960;20.158;2023-05-29T02:50:36;100432.77;;;10.61;61.38
55801;BME280;41730;51.960;20.158;2023-05-29T02:53:08;100436.36;;;10.49;62.12
55801;BME280;41730;51.960;20.158;2023-05-29T02:55:39;100434.27;;;10.61;61.84
55801;BME280;41730;51.960;20.158;2023-05-29T02:58:12;100436.23;;;10.63;61.89
55801;BME280;41730;51.960;20.158;2023-05-29T03:00:46;100436.14;;;10.60;62.22
55801;BME280;41730;51.960;20.158;2023-05-29T03:03:18;100433.81;;;10.63;62.41
55801;BME280;41730;51.960;20.158;2023-05-29T03:05:50;100432.70;;;10.75;62.22
55801;BME280;41730;51.960;20.158;2023-05-29T03:08:21;100435.02;;;10.89;62.19
55801;BME280;41730;51.960;20.158;2023-05-29T03:10:54;100431.96;;;11.04;62.45
55801;BME280;41730;51.960;20.158;2023-05-29T03:13:26;100434.38;;;11.23;62.71
55801;BME280;41730;51.960;20.158;2023-05-29T03:15:58;100435.98;;;11.51;62.48
55801;BME280;41730;51.960;20.158;2023-05-29T03:18:30;100436.41;;;11.73;62.45
55801;BME280;41730;51.960;20.158;2023-05-29T03:21:01;100441.20;;;11.94;62.22
55801;BME280;41730;51.960;20.158;2023-05-29T03:23:33;100441.27;;;12.20;61.87
55801;BME280;41730;51.960;20.158;2023-05-29T03:26:05;100443.73;;;12.38;61.59
55801;BME280;41730;51.960;20.158;2023-05-29T03:28:36;100439.10;;;12.59;61.46
55801;BME280;41730;51.960;20.158;2023-05-29T03:39:12;100449.17;;;14.48;59.16
55801;BME280;41730;51.960;20.158;2023-05-29T03:41:44;100454.69;;;14.76;58.58
55801;BME280;41730;51.960;20.158;2023-05-29T03:44:15;100454.95;;;14.90;58.38
55801;BME280;41730;51.960;20.158;2023-05-29T03:46:47;100456.02;;;15.13;57.98
55801;BME280;41730;51.960;20.158;2023-05-29T03:49:20;100458.41;;;15.39;57.60
55801;BME280;41730;51.960;20.158;2023-05-29T03:51:52;100460.06;;;15.62;57.16
55801;BME280;41730;51.960;20.158;2023-05-29T03:54:23;100461.60;;;15.76;56.93
55801;BME280;41730;51.960;20.158;2023-05-29T03:56:55;100459.94;;;15.89;56.78
55801;BME280;41730;51.960;20.158;2023-05-29T03:59:27;100460.23;;;16.16;56.28
55801;BME280;41730;51.960;20.158;2023-05-29T04:01:58;100458.64;;;16.35;56.25
55801;BME280;41730;51.960;20.158;2023-05-29T04:04:30;100462.42;;;16.58;55.69
55801;BME280;41730;51.960;20.158;2023-05-29T04:07:03;100458.48;;;16.88;55.23
55801;BME280;41730;51.960;20.158;2023-05-29T04:09:35;100459.84;;;17.24;54.29
55801;BME280;41730;51.960;20.158;2023-05-29T04:12:08;100458.44;;;17.58;53.90
55801;BME280;41730;51.960;20.158;2023-05-29T04:14:40;100461.84;;;17.81;53.37
55801;BME280;41730;51.960;20.158;2023-05-29T04:17:12;100466.91;;;17.97;53.24
55801;BME280;41730;51.960;20.158;2023-05-29T04:19:44;100467.34;;;18.29;52.67
55801;BME280;41730;51.960;20.158;2023-05-29T04:22:16;100461.94;;;18.71;51.71
55801;BME280;41730;51.960;20.158;2023-05-29T04:24:48;100460.95;;;18.83;51.29
55801;BME280;41730;51.960;20.158;2023-05-29T04:27:19;100467.08;;;18.87;51.32
55801;BME280;41730;51.960;20.158;2023-05-29T04:29:51;100468.05;;;19.03;51.21
55801;BME280;41730;51.960;20.158;2023-05-29T04:32:23;100464.89;;;19.34;50.66
55801;BME280;41730;51.960;20.158;2023-05-29T04:34:56;100466.13;;;19.59;50.35
55801;BME280;41730;51.960;20.158;2023-05-29T04:37:32;100466.19;;;19.93;49.66
55801;BME280;41730;51.960;20.158;2023-05-29T04:40:09;100467.73;;;20.28;48.45
55801;BME280;41730;51.960;20.158;2023-05-29T04:42:44;100466.32;;;20.46;47.68
55801;BME280;41730;51.960;20.158;2023-05-29T04:45:19;100465.60;;;20.57;47.25
55801;BME280;41730;51.960;20.158;2023-05-29T04:47:51;100463.91;;;20.60;47.14
55801;BME280;41730;51.960;20.158;2023-05-29T04:50:25;100465.73;;;20.68;47.09
55801;BME280;41730;51.960;20.158;2023-05-29T04:53:01;100465.20;;;21.06;46.61
55801;BME280;41730;51.960;20.158;2023-05-29T04:55:32;100463.98;;;21.44;46.12
55801;BME280;41730;51.960;20.158;2023-05-29T04:58:04;100462.70;;;21.76;45.40
55801;BME280;41730;51.960;20.158;2023-05-29T05:00:36;100461.64;;;21.89;44.97
55801;BME280;41730;51.960;20.158;2023-05-29T05:03:08;100462.52;;;22.07;44.63
55801;BME280;41730;51.960;20.158;2023-05-29T05:05:41;100462.58;;;22.42;43.97
55801;BME280;41730;51.960;20.158;2023-05-29T05:08:13;100458.02;;;22.86;42.96
55801;BME280;41730;51.960;20.158;2023-05-29T05:10:45;100458.02;;;23.05;42.19
55801;BME280;41730;51.960;20.158;2023-05-29T05:13:17;100461.45;;;23.10;41.86
55801;BME280;41730;51.960;20.158;2023-05-29T05:15:48;100458.05;;;23.22;41.16
55801;BME280;41730;51.960;20.158;2023-05-29T05:18:22;100457.38;;;23.34;40.79
55801;BME280;41730;51.960;20.158;2023-05-29T05:20:52;100457.92;;;23.43;40.52
55801;BME280;41730;51.960;20.158;2023-05-29T05:23:27;100459.61;;;23.61;40.57
55801;BME280;41730;51.960;20.158;2023-05-29T05:26:01;100455.27;;;23.86;39.95
55801;BME280;41730;51.960;20.158;2023-05-29T05:28:33;100457.42;;;24.03;39.43
55801;BME280;41730;51.960;20.158;2023-05-29T05:31:05;100456.13;;;24.27;38.88
55801;BME280;41730;51.960;20.158;2023-05-29T05:33:43;100453.20;;;24.48;38.55
55801;BME280;41730;51.960;20.158;2023-05-29T05:36:21;100456.25;;;24.76;37.99
55801;BME280;41730;51.960;20.158;2023-05-29T05:38:54;100458.83;;;24.79;37.80
55801;BME280;41730;51.960;20.158;2023-05-29T05:41:26;100457.81;;;24.83;37.64
55801;BME280;41730;51.960;20.158;2023-05-29T05:43:57;100463.63;;;24.97;37.36
55801;BME280;41730;51.960;20.158;2023-05-29T05:46:30;100461.77;;;24.94;37.31
55801;BME280;41730;51.960;20.158;2023-05-29T05:49:02;100465.16;;;25.04;36.95
55801;BME280;41730;51.960;20.158;2023-05-29T05:51:41;100466.62;;;25.09;36.82
55801;BME280;41730;51.960;20.158;2023-05-29T05:54:12;100463.92;;;25.09;37.13
55801;BME280;41730;51.960;20.158;2023-05-29T05:56:44;100462.48;;;24.91;37.03
55801;BME280;41730;51.960;20.158;2023-05-29T05:59:16;100465.55;;;24.83;37.29
55801;BME280;41730;51.960;20.158;2023-05-29T06:01:48;100464.89;;;24.92;36.92
55801;BME280;41730;51.960;20.158;2023-05-29T06:04:20;100466.86;;;24.85;37.03
55801;BME280;41730;51.960;20.158;2023-05-29T06:06:53;100463.85;;;24.90;36.66
55801;BME280;41730;51.960;20.158;2023-05-29T06:09:25;100465.92;;;25.06;36.54
55801;BME280;41730;51.960;20.158;2023-05-29T06:11:56;100467.09;;;25.08;36.17
55801;BME280;41730;51.960;20.158;2023-05-29T06:14:28;100464.01;;;25.10;36.24
55801;BME280;41730;51.960;20.158;2023-05-29T06:17:02;100462.10;;;25.09;36.30
55801;BME280;41730;51.960;20.158;2023-05-29T06:19:35;100464.62;;;25.02;36.33
55801;BME280;41730;51.960;20.158;2023-05-29T06:22:08;100468.44;;;25.00;36.47
55801;BME280;41730;51.960;20.158;2023-05-29T06:24:40;100465.02;;;25.14;36.34
55801;BME280;41730;51.960;20.158;2023-05-29T06:27:12;100465.30;;;25.11;36.27
55801;BME280;41730;51.960;20.158;2023-05-29T06:29:46;100466.33;;;25.25;35.97
55801;BME280;41730;51.960;20.158;2023-05-29T06:32:18;100466.34;;;25.15;36.02
55801;BME280;41730;51.960;20.158;2023-05-29T06:34:50;100470.70;;;24.98;36.07
55801;BME280;41730;51.960;20.158;2023-05-29T06:37:23;100467.93;;;24.89;36.22
55801;BME280;41730;51.960;20.158;2023-05-29T06:39:56;100469.86;;;24.82;36.27
55801;BME280;41730;51.960;20.158;2023-05-29T06:42:28;100470.40;;;24.82;36.20
55801;BME280;41730;51.960;20.158;2023-05-29T06:45:00;100471.66;;;24.87;35.83
55801;BME280;41730;51.960;20.158;2023-05-29T06:47:32;100471.04;;;25.12;35.22
55801;BME280;41730;51.960;20.158;2023-05-29T06:50:05;100471.20;;;25.29;34.60
55801;BME280;41730;51.960;20.158;2023-05-29T06:52:37;100468.79;;;25.37;34.05
55801;BME280;41730;51.960;20.158;2023-05-29T06:55:09;100469.57;;;25.25;34.07
55801;BME280;41730;51.960;20.158;2023-05-29T06:57:41;100465.66;;;25.20;33.77
55801;BME280;41730;51.960;20.158;2023-05-29T07:00:17;100467.98;;;25.07;33.02
55801;BME280;41730;51.960;20.158;2023-05-29T07:02:57;100468.65;;;25.01;32.71
55801;BME280;41730;51.960;20.158;2023-05-29T07:05:31;100473.52;;;25.13;32.42
55801;BME280;41730;51.960;20.158;2023-05-29T07:08:03;100477.12;;;25.22;32.10
55801;BME280;41730;51.960;20.158;2023-05-29T07:10:37;100473.48;;;25.22;31.88
55801;BME280;41730;51.960;20.158;2023-05-29T07:13:13;100481.20;;;25.24;31.76
55801;BME280;41730;51.960;20.158;2023-05-29T07:15:45;100481.16;;;25.29;31.70
55801;BME280;41730;51.960;20.158;2023-05-29T07:18:17;100479.44;;;25.42;31.56
55801;BME280;41730;51.960;20.158;2023-05-29T07:20:55;100481.94;;;25.44;31.35
55801;BME280;41730;51.960;20.158;2023-05-29T07:23:30;100480.20;;;25.38;31.45
55801;BME280;41730;51.960;20.158;2023-05-29T07:26:01;100479.69;;;25.57;31.39
55801;BME280;41730;51.960;20.158;2023-05-29T07:28:33;100478.65;;;25.73;31.62
55801;BME280;41730;51.960;20.158;2023-05-29T07:31:05;100476.89;;;25.80;31.05
55801;BME280;41730;51.960;20.158;2023-05-29T07:33:37;100476.64;;;25.66;30.15
55801;BME280;41730;51.960;20.158;2023-05-29T07:36:11;100484.69;;;25.43;30.49
55801;BME280;41730;51.960;20.158;2023-05-29T07:38:43;100486.42;;;25.37;30.38
55801;BME280;41730;51.960;20.158;2023-05-29T07:41:16;100487.34;;;25.14;31.01
55801;BME280;41730;51.960;20.158;2023-05-29T07:43:48;100484.26;;;25.19;30.94
55801;BME280;41730;51.960;20.158;2023-05-29T07:46:22;100482.39;;;25.39;31.04
55801;BME280;41730;51.960;20.158;2023-05-29T07:48:54;100481.05;;;25.58;30.52
55801;BME280;41730;51.960;20.158;2023-05-29T07:51:25;100488.70;;;25.39;30.33
55801;BME280;41730;51.960;20.158;2023-05-29T07:53:57;100488.09;;;25.12;30.52
55801;BME280;41730;51.960;20.158;2023-05-29T07:56:29;100482.58;;;25.05;30.99
55801;BME280;41730;51.960;20.158;2023-05-29T07:59:01;100479.40;;;25.19;31.31
55801;BME280;41730;51.960;20.158;2023-05-29T08:01:33;100482.73;;;25.39;30.81
55801;BME280;41730;51.960;20.158;2023-05-29T08:04:04;100484.59;;;25.26;30.32
55801;BME280;41730;51.960;20.158;2023-05-29T08:06:37;100485.92;;;24.89;30.60
55801;BME280;41730;51.960;20.158;2023-05-29T08:09:14;100491.23;;;24.53;30.95
55801;BME280;41730;51.960;20.158;2023-05-29T08:11:47;100486.84;;;24.59;31.41
55801;BME280;41730;51.960;20.158;2023-05-29T08:14:23;100487.21;;;24.80;31.53
55801;BME280;41730;51.960;20.158;2023-05-29T08:16:56;100490.98;;;25.13;31.32
55801;BME280;41730;51.960;20.158;2023-05-29T08:19:29;100486.45;;;25.44;31.15
55801;BME280;41730;51.960;20.158;2023-05-29T08:22:02;100485.06;;;25.90;30.80
55801;BME280;41730;51.960;20.158;2023-05-29T08:24:34;100481.36;;;26.26;30.44
55801;BME280;41730;51.960;20.158;2023-05-29T08:27:06;100479.74;;;26.35;30.45
55801;BME280;41730;51.960;20.158;2023-05-29T08:29:40;100482.95;;;26.48;30.32
55801;BME280;41730;51.960;20.158;2023-05-29T08:32:12;100483.46;;;26.47;29.83
55801;BME280;41730;51.960;20.158;2023-05-29T08:34:45;100480.41;;;26.19;29.69
55801;BME280;41730;51.960;20.158;2023-05-29T08:37:16;100481.60;;;26.03;29.79
55801;BME280;41730;51.960;20.158;2023-05-29T08:39:49;100483.85;;;25.99;30.12
55801;BME280;41730;51.960;20.158;2023-05-29T08:42:25;100487.50;;;26.06;30.26
55801;BME280;41730;51.960;20.158;2023-05-29T08:45:01;100480.05;;;26.29;30.06
55801;BME280;41730;51.960;20.158;2023-05-29T08:47:35;100478.86;;;26.28;29.75
55801;BME280;41730;51.960;20.158;2023-05-29T08:50:09;100477.30;;;26.10;29.86
55801;BME280;41730;51.960;20.158;2023-05-29T08:52:41;100480.96;;;26.09;29.90
55801;BME280;41730;51.960;20.158;2023-05-29T08:55:13;100481.55;;;26.01;29.88
55801;BME280;41730;51.960;20.158;2023-05-29T08:57:46;100482.21;;;25.95;29.72
55801;BME280;41730;51.960;20.158;2023-05-29T09:00:19;100482.73;;;25.94;29.43
55801;BME280;41730;51.960;20.158;2023-05-29T09:02:52;100483.55;;;25.93;28.91
55801;BME280;41730;51.960;20.158;2023-05-29T09:05:25;100483.56;;;25.76;29.17
55801;BME280;41730;51.960;20.158;2023-05-29T09:07:58;100476.60;;;25.55;29.30
55801;BME280;41730;51.960;20.158;2023-05-29T09:10:30;100477.16;;;25.48;29.56
55801;BME280;41730;51.960;20.158;2023-05-29T09:13:02;100479.02;;;25.47;29.43
55801;BME280;41730;51.960;20.158;2023-05-29T09:15:34;100475.20;;;25.54;29.74
55801;BME280;41730;51.960;20.158;2023-05-29T09:18:07;100469.10;;;25.60;29.59
55801;BME280;41730;51.960;20.158;2023-05-29T09:20:39;100472.15;;;25.57;29.67
55801;BME280;41730;51.960;20.158;2023-05-29T09:23:11;100470.64;;;25.70;29.14
55801;BME280;41730;51.960;20.158;2023-05-29T09:25:44;100466.34;;;25.69;28.80
55801;BME280;41730;51.960;20.158;2023-05-29T09:28:19;100464.64;;;25.48;28.85
55801;BME280;41730;51.960;20.158;2023-05-29T09:30:54;100470.26;;;25.28;29.20
55801;BME280;41730;51.960;20.158;2023-05-29T09:33:26;100469.95;;;25.24;29.42
55801;BME280;41730;51.960;20.158;2023-05-29T09:36:01;100466.08;;;25.25;29.30
55801;BME280;41730;51.960;20.158;2023-05-29T09:38:32;100465.29;;;25.16;29.24
55801;BME280;41730;51.960;20.158;2023-05-29T09:41:05;100461.62;;;25.13;29.41
55801;BME280;41730;51.960;20.158;2023-05-29T09:43:40;100464.80;;;25.11;29.51
55801;BME280;41730;51.960;20.158;2023-05-29T09:46:18;100463.82;;;24.98;29.68
55801;BME280;41730;51.960;20.158;2023-05-29T09:48:50;100460.42;;;24.99;29.83
55801;BME280;41730;51.960;20.158;2023-05-29T09:51:23;100460.40;;;25.25;29.61
55801;BME280;41730;51.960;20.158;2023-05-29T09:53:57;100457.70;;;25.57;29.46
55801;BME280;41730;51.960;20.158;2023-05-29T09:56:32;100463.64;;;25.95;29.21
55801;BME280;41730;51.960;20.158;2023-05-29T09:59:05;100458.88;;;26.18;28.95
55801;BME280;41730;51.960;20.158;2023-05-29T10:01:37;100461.92;;;26.30;28.97
55801;BME280;41730;51.960;20.158;2023-05-29T10:04:10;100459.46;;;26.38;28.66
55801;BME280;41730;51.960;20.158;2023-05-29T10:06:44;100454.48;;;26.24;28.60
55801;BME280;41730;51.960;20.158;2023-05-29T10:09:19;100455.72;;;26.08;28.23
55801;BME280;41730;51.960;20.158;2023-05-29T10:11:54;100458.11;;;25.70;28.48
55801;BME280;41730;51.960;20.158;2023-05-29T10:14:30;100449.28;;;25.58;28.77
55801;BME280;41730;51.960;20.158;2023-05-29T10:17:08;100458.83;;;25.69;29.07
55801;BME280;41730;51.960;20.158;2023-05-29T10:19:42;100446.06;;;25.62;28.43
55801;BME280;41730;51.960;20.158;2023-05-29T10:22:18;100450.23;;;25.31;28.58
55801;BME280;41730;51.960;20.158;2023-05-29T10:24:53;100448.48;;;24.97;28.86
55801;BME280;41730;51.960;20.158;2023-05-29T10:27:27;100445.70;;;24.79;29.09
55801;BME280;41730;51.960;20.158;2023-05-29T10:30:09;100447.91;;;25.00;29.16
55801;BME280;41730;51.960;20.158;2023-05-29T10:32:51;100444.42;;;25.25;28.79
55801;BME280;41730;51.960;20.158;2023-05-29T10:35:36;100446.52;;;25.04;28.90
55801;BME280;41730;51.960;20.158;2023-05-29T10:38:13;100437.84;;;24.74;29.27
55801;BME280;41730;51.960;20.158;2023-05-29T10:40:48;100428.11;;;24.72;29.55
55801;BME280;41730;51.960;20.158;2023-05-29T10:43:35;100432.52;;;24.78;29.88
55801;BME280;41730;51.960;20.158;2023-05-29T10:46:13;100433.60;;;24.91;29.68
55801;BME280;41730;51.960;20.158;2023-05-29T10:48:47;100428.34;;;25.06;29.87
55801;BME280;41730;51.960;20.158;2023-05-29T10:51:26;100424.55;;;25.19;30.09
55801;BME280;41730;51.960;20.158;2023-05-29T10:54:01;100424.77;;;25.28;30.05
55801;BME280;41730;51.960;20.158;2023-05-29T10:56:36;100427.48;;;25.34;29.78
55801;BME280;41730;51.960;20.158;2023-05-29T10:59:10;100425.62;;;25.48;29.85
55801;BME280;41730;51.960;20.158;2023-05-29T11:01:42;100427.52;;;25.48;29.76
55801;BME280;41730;51.960;20.158;2023-05-29T11:04:30;100425.27;;;25.55;29.56
55801;BME280;41730;51.960;20.158;2023-05-29T11:07:04;100420.56;;;25.68;29.77
55801;BME280;41730;51.960;20.158;2023-05-29T11:09:40;100418.39;;;25.78;29.65
55801;BME280;41730;51.960;20.158;2023-05-29T11:12:22;100414.06;;;25.81;29.06
55801;BME280;41730;51.960;20.158;2023-05-29T11:15:08;100410.67;;;25.83;29.33
55801;BME280;41730;51.960;20.158;2023-05-29T11:17:48;100409.61;;;25.82;29.47
55801;BME280;41730;51.960;20.158;2023-05-29T11:20:33;100411.30;;;25.82;29.37
55801;BME280;41730;51.960;20.158;2023-05-29T11:23:11;100409.75;;;25.92;29.14
55801;BME280;41730;51.960;20.158;2023-05-29T11:25:57;100404.86;;;26.11;29.13
55801;BME280;41730;51.960;20.158;2023-05-29T11:28:39;100406.95;;;26.20;28.97
55801;BME280;41730;51.960;20.158;2023-05-29T11:31:12;100410.95;;;26.25;29.01
55801;BME280;41730;51.960;20.158;2023-05-29T11:33:50;100409.29;;;26.37;29.04
55801;BME280;41730;51.960;20.158;2023-05-29T11:36:24;100416.35;;;26.43;28.84
55801;BME280;41730;51.960;20.158;2023-05-29T11:39:00;100411.42;;;26.46;28.71
55801;BME280;41730;51.960;20.158;2023-05-29T11:41:35;100412.39;;;26.51;28.77
55801;BME280;41730;51.960;20.158;2023-05-29T11:44:15;100411.05;;;26.63;28.71
55801;BME280;41730;51.960;20.158;2023-05-29T11:46:49;100409.17;;;26.91;28.56
55801;BME280;41730;51.960;20.158;2023-05-29T11:49:34;100408.81;;;26.94;28.60
55801;BME280;41730;51.960;20.158;2023-05-29T11:52:12;100405.10;;;26.86;28.13
55801;BME280;41730;51.960;20.158;2023-05-29T11:54:46;100402.08;;;26.64;28.39
55801;BME280;41730;51.960;20.158;2023-05-29T11:57:21;100403.86;;;26.64;28.31
55801;BME280;41730;51.960;20.158;2023-05-29T11:59:55;100406.77;;;26.61;28.11
55801;BME280;41730;51.960;20.158;2023-05-29T12:02:31;100409.12;;;26.44;27.77
55801;BME280;41730;51.960;20.158;2023-05-29T12:05:05;100405.67;;;26.30;27.99
55801;BME280;41730;51.960;20.158;2023-05-29T12:07:38;100396.23;;;26.29;28.08
55801;BME280;41730;51.960;20.158;2023-05-29T12:10:16;100395.73;;;26.15;28.04
55801;BME280;41730;51.960;20.158;2023-05-29T12:12:52;100390.79;;;26.05;28.34
55801;BME280;41730;51.960;20.158;2023-05-29T12:15:25;100390.39;;;26.15;28.50
55801;BME280;41730;51.960;20.158;2023-05-29T12:17:57;100386.35;;;26.48;28.48
55801;BME280;41730;51.960;20.158;2023-05-29T12:20:29;100385.91;;;26.67;28.12
55801;BME280;41730;51.960;20.158;2023-05-29T12:23:03;100385.52;;;26.76;27.99
55801;BME280;41730;51.960;20.158;2023-05-29T12:25:35;100380.87;;;26.74;27.79
55801;BME280;41730;51.960;20.158;2023-05-29T12:28:08;100381.19;;;26.56;27.98
55801;BME280;41730;51.960;20.158;2023-05-29T12:30:40;100375.83;;;26.77;27.93
55801;BME280;41730;51.960;20.158;2023-05-29T12:33:27;100381.19;;;26.94;27.77
55801;BME280;41730;51.960;20.158;2023-05-29T12:36:06;100379.28;;;26.94;27.99
55801;BME280;41730;51.960;20.158;2023-05-29T12:38:49;100373.18;;;27.05;27.87
55801;BME280;41730;51.960;20.158;2023-05-29T12:41:27;100368.34;;;27.14;27.90
55801;BME280;41730;51.960;20.158;2023-05-29T12:44:01;100366.59;;;27.15;27.60
55801;BME280;41730;51.960;20.158;2023-05-29T12:46:39;100368.61;;;27.14;27.49
55801;BME280;41730;51.960;20.158;2023-05-29T12:49:17;100363.92;;;27.08;27.47
55801;BME280;41730;51.960;20.158;2023-05-29T12:51:51;100362.52;;;27.06;27.44
55801;BME280;41730;51.960;20.158;2023-05-29T12:54:22;100359.30;;;27.00;27.14
55801;BME280;41730;51.960;20.158;2023-05-29T12:56:56;100364.05;;;26.80;27.11
55801;BME280;41730;51.960;20.158;2023-05-29T12:59:32;100364.11;;;26.47;27.19
55801;BME280;41730;51.960;20.158;2023-05-29T13:02:04;100363.00;;;26.21;27.49
55801;BME280;41730;51.960;20.158;2023-05-29T13:04:38;100359.29;;;26.01;27.35
55801;BME280;41730;51.960;20.158;2023-05-29T13:07:10;100354.55;;;25.86;27.76
55801;BME280;41730;51.960;20.158;2023-05-29T13:09:45;100352.33;;;25.74;28.00
55801;BME280;41730;51.960;20.158;2023-05-29T13:12:17;100348.67;;;25.75;28.12
55801;BME280;41730;51.960;20.158;2023-05-29T13:14:50;100351.85;;;25.97;28.09
55801;BME280;41730;51.960;20.158;2023-05-29T13:17:26;100350.38;;;26.11;27.85
55801;BME280;41730;51.960;20.158;2023-05-29T13:20:02;100342.65;;;26.09;28.00
55801;BME280;41730;51.960;20.158;2023-05-29T13:22:40;100341.71;;;26.14;27.99